Tiff City, Missouri
Current Conditions -  °F | °C
As of 5:15 PM on Saturday 25 Oct 2014 (Local Time) from KGMJ Reporting Station
Clear Clear  
Wind Chill: 82°   Ceiling: Unl
Heat Index: 84°   Visibility: 10mi
Dew Point: 64°   Wind: 0mph
Humidity: 54%   Direction: NA
Pressure: 30.03"   Gusts: NA
Location:  36.67°N, 94.62°W
Report Text: KGMJ 252215Z AUTO 00000KT 10SM CLR 28/18 A3003 RMK AO2
Loading
Personal Weather Stations






























Interactive Weather Map
Tropical Storm Tracking
New forecast layout! Learn more

10-Day Weather Forecast

Advertisements
Track Severe Weather on mobile